Fargo, Oklahoma
Current Conditions -  °F | °C
As of 2:35 PM on Wednesday 26 Nov 2014 (Local Time) from KWWR Reporting Station
Clear Clear  
Wind Chill: 52°   Ceiling: Unl
Heat Index: 52°   Visibility: 10mi
Dew Point: 18°   Wind: 14mph
Humidity: 26%   Direction: 320°NW
Pressure: 30.27"   Gusts: 25mph
Location:  36.38°N, 99.62°W
Report Text: KWWR 262035Z AUTO 32012G22KT 10SM CLR 11/M08 A3027 RMK AO2
Loading
Personal Weather Stations






























Interactive Weather Map New forecast layout! Learn more

10-Day Weather Forecast

Advertisements
Track Severe Weather on mobile